Wetterdaten: aktuell Sonntag, 06.09.2026 05:00
Datum Zeit Arbeit-Z. Temp. A. Bod.+5cm Temp. A. min Temp. A. max Bl.Temp +1m BTemp -5cm BTemp -10cm BTemp -20cm BTemp -50cm Feuchte I. Feuchte A. BlattFeu +1m BFeucht -5cm BFeucht-10cm BFeucht-20cm BFeucht-50cm Luftdruck Regen Wind Richtung Richtung Sonnenschein ET UV Solar Taupunkt Windchill Windböen Empfang
06.09.2026 05:00 25,8 °C 13,6 °C 12,2 °C 13,6 °C 13,6 °C 17,8 °C 17,8 °C 20,0 °C 20,6 °C 20,6 °C 44 % 78 % 0 lf 200 cb 200 cb 200 cb 124 cb 1023,8 hPa 0,0 l/m² 1,4 km/h (1 Bft) SO 143 ° 0 min 0,025 mm 0,0 UV-I 0 W/m² 9,8 °C 13,6 °C 3,2 km/h (1 Bft) 96,49 %
06.09.2026 04:00 25,9 °C 14,1 °C 12,2 °C 14,0 °C 14,1 °C 17,8 °C 17,8 °C 20,0 °C 20,6 °C 20,6 °C 44 % 76 % 0 lf 200 cb 200 cb 200 cb 124 cb 1023,9 hPa 0,0 l/m² 0,9 km/h (0 Bft) O-SO 108 ° 0 min 0,026 mm 0,0 UV-I 0 W/m² 9,9 °C 14,1 °C 3,2 km/h (1 Bft) 94,02 %
06.09.2026 03:00 26,0 °C 14,4 °C 12,8 °C 14,4 °C 14,6 °C 18,3 °C 18,3 °C 20,6 °C 20,6 °C 20,6 °C 44 % 76 % 0 lf 200 cb 200 cb 200 cb 123 cb 1023,8 hPa 0,0 l/m² 0,4 km/h (0 Bft) S 172 ° 0 min 0,025 mm 0,0 UV-I 0 W/m² 10,2 °C 14,4 °C 3,2 km/h (1 Bft) 94,96 %
06.09.2026 02:00 26,1 °C 15,0 °C 13,3 °C 15,0 °C 15,2 °C 18,3 °C 18,3 °C 20,6 °C 21,1 °C 20,6 °C 44 % 73 % 0 lf 200 cb 200 cb 200 cb 123 cb 1023,7 hPa 0,0 l/m² 0,8 km/h (0 Bft) O-SO 111 ° 0 min 0,026 mm 0,0 UV-I 0 W/m² 10,2 °C 15,0 °C 3,2 km/h (1 Bft) 97,48 %
06.09.2026 01:00 26,1 °C 15,4 °C 13,3 °C 15,3 °C 15,5 °C 18,9 °C 18,9 °C 20,6 °C 21,1 °C 20,6 °C 45 % 73 % 0 lf 200 cb 200 cb 200 cb 123 cb 1023,6 hPa 0,0 l/m² 0,8 km/h (0 Bft) SO 128 ° 0 min 0,025 mm 0,0 UV-I 0 W/m² 10,6 °C 15,4 °C 3,2 km/h (1 Bft) 92,98 %
06.09.2026 00:00 26,1 °C 16,3 °C 14,4 °C 16,2 °C 16,3 °C 18,9 °C 18,9 °C 21,1 °C 21,1 °C 20,6 °C 45 % 71 % 0 lf 200 cb 200 cb 200 cb 123 cb 1023,0 hPa 0,0 l/m² 0,5 km/h (0 Bft) S 175 ° 0 min 0,026 mm 0,0 UV-I 0 W/m² 11,0 °C 16,3 °C 3,2 km/h (1 Bft) 98,21 %
05.09.2026 23:00 26,1 °C 17,3 °C 15,6 °C 17,3 °C 17,5 °C 19,4 °C 19,4 °C 21,1 °C 21,1 °C 20,6 °C 45 % 69 % 0 lf 200 cb 200 cb 200 cb 123 cb 1022,7 hPa 0,0 l/m² 1,7 km/h (1 Bft) O-SO 115 ° 0 min 0,025 mm 0,0 UV-I 0 W/m² 11,6 °C 17,3 °C 6,4 km/h (2 Bft) 94,50 %
05.09.2026 22:00 26,1 °C 17,1 °C 15,0 °C 16,9 °C 17,1 °C 20,0 °C 20,0 °C 21,1 °C 21,1 °C 20,6 °C 45 % 71 % 0 lf 200 cb 200 cb 200 cb 122 cb 1022,0 hPa 0,0 l/m² 0,0 km/h (0 Bft) S 186 ° 0 min 0,000 mm 0,0 UV-I 0 W/m² 11,8 °C 17,1 °C 0,0 km/h (0 Bft) 94,02 %
05.09.2026 21:00 26,2 °C 18,9 °C 16,7 °C 18,9 °C 19,3 °C 20,0 °C 20,0 °C 21,7 °C 21,1 °C 21,1 °C 44 % 68 % 0 lf 200 cb 200 cb 200 cb 123 cb 1021,4 hPa 0,0 l/m² 0,2 km/h (0 Bft) S-SW 202 ° 0 min 0,001 mm 0,0 UV-I 0 W/m² 12,9 °C 18,9 °C 1,6 km/h (1 Bft) 96,33 %
05.09.2026 20:00 26,4 °C 22,3 °C 19,4 °C 22,3 °C 22,6 °C 20,6 °C 20,6 °C 21,7 °C 21,1 °C 21,1 °C 42 % 53 % 0 lf 200 cb 200 cb 200 cb 123 cb 1020,5 hPa 0,0 l/m² 0,1 km/h (0 Bft) W-SW 240 ° 0 min 0,076 mm 0,0 UV-I 0 W/m² 12,2 °C 22,3 °C 1,6 km/h (1 Bft) 95,80 %
05.09.2026 19:00 26,7 °C 25,2 °C 25,0 °C 25,2 °C 25,5 °C 20,6 °C 20,6 °C 21,7 °C 21,1 °C 21,1 °C 42 % 45 % 0 lf 200 cb 200 cb 200 cb 123 cb 1020,2 hPa 0,0 l/m² 2,7 km/h (1 Bft) N-NW 348 ° 0 min 0,228 mm 0,0 UV-I 21 W/m² 12,4 °C 25,2 °C 6,4 km/h (2 Bft) 96,83 %
05.09.2026 18:00 26,5 °C 26,4 °C 26,1 °C 26,3 °C 26,4 °C 21,1 °C 21,1 °C 21,7 °C 21,1 °C 21,1 °C 41 % 42 % 0 lf 200 cb 200 cb 200 cb 123 cb 1019,6 hPa 0,0 l/m² 4,2 km/h (1 Bft) S-SW 210 ° 35 min 0,228 mm 0,5 UV-I 56 W/m² 12,4 °C 26,4 °C 12,9 km/h (3 Bft) 95,61 %
05.09.2026 17:00 26,1 °C 26,9 °C 27,8 °C 26,7 °C 26,9 °C 21,1 °C 21,1 °C 21,7 °C 21,1 °C 21,1 °C 42 % 41 % 0 lf 200 cb 200 cb 200 cb 123 cb 1019,6 hPa 0,0 l/m² 6,5 km/h (2 Bft) N-NW 336 ° 60 min 0,407 mm 1,5 UV-I 452 W/m² 12,5 °C 26,9 °C 16,1 km/h (3 Bft) 96,77 %
05.09.2026 16:00 25,8 °C 26,8 °C 27,2 °C 26,7 °C 26,9 °C 21,7 °C 21,7 °C 21,7 °C 21,1 °C 21,1 °C 43 % 44 % 0 lf 200 cb 200 cb 200 cb 123 cb 1019,7 hPa 0,0 l/m² 4,8 km/h (1 Bft) SW 224 ° 60 min 0,457 mm 2,5 UV-I 577 W/m² 13,5 °C 26,8 °C 14,5 km/h (3 Bft) 96,72 %
05.09.2026 15:00 25,7 °C 26,4 °C 25,6 °C 26,4 °C 26,7 °C 22,2 °C 22,2 °C 21,7 °C 21,1 °C 21,1 °C 44 % 46 % 0 lf 200 cb 200 cb 200 cb 123 cb 1019,9 hPa 0,0 l/m² 4,8 km/h (1 Bft) NW 315 ° 60 min 0,483 mm 3,5 UV-I 661 W/m² 13,8 °C 26,4 °C 12,9 km/h (3 Bft) 92,68 %
05.09.2026 14:00 25,6 °C 24,9 °C 23,9 °C 24,9 °C 25,6 °C 22,2 °C 22,2 °C 21,1 °C 21,1 °C 21,1 °C 46 % 50 % 0 lf 200 cb 200 cb 200 cb 122 cb 1020,0 hPa 0,0 l/m² 6,2 km/h (2 Bft) W 277 ° 60 min 0,482 mm 4,0 UV-I 693 W/m² 13,7 °C 24,9 °C 19,3 km/h (3 Bft) 96,43 %
05.09.2026 13:00 25,6 °C 23,8 °C 22,2 °C 23,8 °C 24,1 °C 21,7 °C 21,7 °C 21,1 °C 21,1 °C 21,1 °C 47 % 57 % 0 lf 200 cb 200 cb 200 cb 122 cb 1020,0 hPa 0,0 l/m² 5,8 km/h (2 Bft) S-SW 207 ° 55 min 0,305 mm 1,9 UV-I 121 W/m² 14,8 °C 23,8 °C 16,1 km/h (3 Bft) 95,90 %
05.09.2026 12:00 25,6 °C 22,2 °C 20,6 °C 22,2 °C 22,5 °C 21,1 °C 21,1 °C 21,1 °C 21,1 °C 21,1 °C 50 % 68 % 0 lf 200 cb 200 cb 200 cb 122 cb 1020,0 hPa 0,0 l/m² 3,4 km/h (1 Bft) S 173 ° 55 min 0,229 mm 1,8 UV-I 141 W/m² 16,0 °C 22,2 °C 12,9 km/h (3 Bft) 98,29 %
05.09.2026 11:00 25,5 °C 22,4 °C 20,6 °C 21,7 °C 22,4 °C 20,6 °C 20,6 °C 21,1 °C 21,7 °C 21,1 °C 50 % 79 % 0 lf 200 cb 200 cb 200 cb 123 cb 1019,8 hPa 0,0 l/m² 4,1 km/h (1 Bft) NW 320 ° 40 min 0,203 mm 1,6 UV-I 657 W/m² 18,6 °C 22,4 °C 9,7 km/h (2 Bft) 95,54 %
05.09.2026 10:00 25,1 °C 20,3 °C 18,9 °C 20,1 °C 20,3 °C 20,0 °C 20,0 °C 21,7 °C 21,7 °C 20,6 °C 51 % 79 % 0 lf 200 cb 200 cb 200 cb 122 cb 1019,3 hPa 0,0 l/m² 3,6 km/h (1 Bft) S-SW 194 ° 40 min 0,127 mm 0,8 UV-I 137 W/m² 16,5 °C 20,3 °C 11,3 km/h (2 Bft) 94,02 %
05.09.2026 09:00 25,3 °C 17,8 °C 16,7 °C 17,5 °C 17,8 °C 20,0 °C 20,0 °C 21,7 °C 21,7 °C 20,6 °C 48 % 83 % 0 lf 200 cb 200 cb 200 cb 123 cb 1018,8 hPa 0,0 l/m² 2,6 km/h (1 Bft) S 173 ° 15 min 0,051 mm 0,7 UV-I 139 W/m² 14,9 °C 17,8 °C 9,7 km/h (2 Bft) 100,00 %
05.09.2026 08:00 26,0 °C 16,4 °C 15,0 °C 16,4 °C 16,5 °C 20,0 °C 20,0 °C 21,7 °C 21,7 °C 20,6 °C 48 % 85 % 0 lf 200 cb 200 cb 200 cb 125 cb 1018,2 hPa 0,0 l/m² 2,3 km/h (1 Bft) W-SW 239 ° 0 min 0,025 mm 0,0 UV-I 25 W/m² 13,9 °C 16,4 °C 8,0 km/h (2 Bft) 95,83 %
05.09.2026 07:00 26,1 °C 16,3 °C 13,9 °C 16,2 °C 16,3 °C 20,6 °C 20,6 °C 22,2 °C 21,7 °C 20,6 °C 48 % 85 % 13 lf 200 cb 200 cb 200 cb 126 cb 1017,5 hPa 0,0 l/m² 1,7 km/h (1 Bft) S 171 ° 0 min 0,025 mm 0,0 UV-I 5 W/m² 13,8 °C 16,3 °C 9,7 km/h (2 Bft) 93,69 %
05.09.2026 06:00 26,2 °C 16,4 °C 13,9 °C 16,4 °C 16,4 °C 21,1 °C 21,1 °C 22,2 °C 21,7 °C 20,6 °C 48 % 83 % 14 lf 200 cb 200 cb 200 cb 127 cb 1016,7 hPa 0,0 l/m² 7,3 km/h (2 Bft) O-SO 105 ° 0 min 0,026 mm 0,0 UV-I 0 W/m² 13,5 °C 15,9 °C 19,3 km/h (3 Bft) 95,04 %
_ Min-Zeit 09:30 04:40 04:55 04:40 05:00 03:20 03:20 03:30 02:30 06:00 17:45 16:05 06:45 06:00 06:00 06:00 09:35 06:00 - 19:50 - - - - - - 04:35 04:40 19:50 06:25
Minimum _ 25,0 °C 13,6 °C 11,7 °C 13,6 °C 13,6 °C 17,8 °C 17,8 °C 20,0 °C 20,6 °C 20,6 °C 39 % 41 % 0 lf 200 cb 200 cb 200 cb 122 cb 1016,7 hPa - 0,0 km/h (0 Bft) - - - - - - 9,7 °C 13,6 °C 0,0 km/h (0 Bft) 87,72 %
_ Max-Zeit 18:35 16:35 17:25 17:05 16:35 13:25 13:25 06:00 06:00 10:10 09:50 07:20 06:00 06:00 06:00 06:00 06:00 03:55 06:00 13:35 - - 08:45 15:00 13:40 12:40 11:00 16:35 13:10 07:55
Maximum _ 26,7 °C 27,3 °C 33,9 °C 26,9 °C 27,3 °C 22,2 °C 22,2 °C 22,2 °C 21,7 °C 21,1 °C 51 % 86 % 14 lf 200 cb 200 cb 200 cb 127 cb 1023,9 hPa 0,0 l/m² 11,3 km/h
N (2 Bft)
- - 5 min 0,483 mm 4,2 UV-I 791 W/m² 18,6 °C 27,2 °C 30,6 km/h
N-NO (5 Bft)
100,00 %
Durchschnitt _ 26,0 °C 19,8 °C 18,4 °C 19,7 °C 19,9 °C 20,3 °C 20,3 °C 21,4 °C 21,2 °C 20,8 °C 45 % 68 % 2 lf 200 cb 200 cb 200 cb 123 cb 1020,4 hPa #0,0 l/m² 3,3 km/h (1 Bft) SW - #0 min. #0,127 mm 0,0 UV-I 0 W/m² 13,1 °C 19,7 °C 9,5 km/h (2 Bft) 95,40 %
copy; 2009 Dieter Kraft